sensor_id;sensor_type;location;lat;lon;timestamp;temperature;humidity
19941;DHT22;10132;50.864;5.176;2023-09-18T00:00:10;20.20;99.90
19941;DHT22;10132;50.864;5.176;2023-09-18T00:02:13;20.20;99.90
19941;DHT22;10132;50.864;5.176;2023-09-18T00:04:16;20.30;99.90
19941;DHT22;10132;50.864;5.176;2023-09-18T00:06:17;20.40;99.90
19941;DHT22;10132;50.864;5.176;2023-09-18T00:08:20;20.40;99.90
19941;DHT22;10132;50.864;5.176;2023-09-18T00:10:22;20.40;99.90
19941;DHT22;10132;50.864;5.176;2023-09-18T00:12:25;20.40;99.90
19941;DHT22;10132;50.864;5.176;2023-09-18T00:14:29;20.40;99.90
19941;DHT22;10132;50.864;5.176;2023-09-18T00:16:32;20.30;99.90
19941;DHT22;10132;50.864;5.176;2023-09-18T00:18:34;20.30;99.90
19941;DHT22;10132;50.864;5.176;2023-09-18T00:20:36;20.10;99.90
19941;DHT22;10132;50.864;5.176;2023-09-18T00:22:39;20.00;99.90
19941;DHT22;10132;50.864;5.176;2023-09-18T00:24:40;20.00;99.90
19941;DHT22;10132;50.864;5.176;2023-09-18T00:26:42;20.00;99.90
19941;DHT22;10132;50.864;5.176;2023-09-18T00:28:46;20.10;99.90
19941;DHT22;10132;50.864;5.176;2023-09-18T00:30:50;20.10;99.90
19941;DHT22;10132;50.864;5.176;2023-09-18T00:32:51;20.00;99.90
19941;DHT22;10132;50.864;5.176;2023-09-18T00:34:54;20.00;99.90
19941;DHT22;10132;50.864;5.176;2023-09-18T00:36:56;19.90;99.90
19941;DHT22;10132;50.864;5.176;2023-09-18T00:38:59;19.80;99.90
19941;DHT22;10132;50.864;5.176;2023-09-18T00:41:02;19.80;99.90
19941;DHT22;10132;50.864;5.176;2023-09-18T00:43:04;19.90;99.90
19941;DHT22;10132;50.864;5.176;2023-09-18T00:45:08;19.90;99.90
19941;DHT22;10132;50.864;5.176;2023-09-18T00:47:15;20.00;99.90
19941;DHT22;10132;50.864;5.176;2023-09-18T00:49:17;20.10;99.90
19941;DHT22;10132;50.864;5.176;2023-09-18T00:51:21;20.10;99.90
19941;DHT22;10132;50.864;5.176;2023-09-18T00:53:24;20.10;99.90
19941;DHT22;10132;50.864;5.176;2023-09-18T00:55:27;20.00;99.90
19941;DHT22;10132;50.864;5.176;2023-09-18T00:57:29;20.10;99.90
19941;DHT22;10132;50.864;5.176;2023-09-18T00:59:32;20.10;99.90
19941;DHT22;10132;50.864;5.176;2023-09-18T01:01:34;20.20;99.90
19941;DHT22;10132;50.864;5.176;2023-09-18T01:03:38;20.20;99.90
19941;DHT22;10132;50.864;5.176;2023-09-18T01:05:40;20.20;99.90
19941;DHT22;10132;50.864;5.176;2023-09-18T01:07:44;20.20;99.90
19941;DHT22;10132;50.864;5.176;2023-09-18T01:09:46;20.20;99.90
19941;DHT22;10132;50.864;5.176;2023-09-18T01:11:54;20.20;99.90
19941;DHT22;10132;50.864;5.176;2023-09-18T01:14:03;20.20;99.90
19941;DHT22;10132;50.864;5.176;2023-09-18T01:16:10;20.20;99.90
19941;DHT22;10132;50.864;5.176;2023-09-18T01:18:14;20.10;99.90
19941;DHT22;10132;50.864;5.176;2023-09-18T01:20:18;20.20;99.90
19941;DHT22;10132;50.864;5.176;2023-09-18T01:22:21;20.10;99.90
19941;DHT22;10132;50.864;5.176;2023-09-18T01:24:24;20.10;99.90
19941;DHT22;10132;50.864;5.176;2023-09-18T01:26:26;20.10;99.90
19941;DHT22;10132;50.864;5.176;2023-09-18T01:28:29;20.10;99.90
19941;DHT22;10132;50.864;5.176;2023-09-18T01:30:31;20.10;99.90
19941;DHT22;10132;50.864;5.176;2023-09-18T01:32:37;20.20;99.90
19941;DHT22;10132;50.864;5.176;2023-09-18T01:34:42;20.20;99.90
19941;DHT22;10132;50.864;5.176;2023-09-18T01:36:53;20.20;99.90
19941;DHT22;10132;50.864;5.176;2023-09-18T01:38:56;20.10;99.90
19941;DHT22;10132;50.864;5.176;2023-09-18T01:41:01;20.30;99.90
19941;DHT22;10132;50.864;5.176;2023-09-18T01:43:04;20.40;99.90
19941;DHT22;10132;50.864;5.176;2023-09-18T01:45:08;20.40;99.90
19941;DHT22;10132;50.864;5.176;2023-09-18T01:47:13;20.50;99.90
19941;DHT22;10132;50.864;5.176;2023-09-18T01:49:19;20.60;99.90
19941;DHT22;10132;50.864;5.176;2023-09-18T01:51:28;20.60;99.90
19941;DHT22;10132;50.864;5.176;2023-09-18T01:53:33;20.90;99.90
19941;DHT22;10132;50.864;5.176;2023-09-18T01:55:35;21.00;99.90
19941;DHT22;10132;50.864;5.176;2023-09-18T01:57:39;21.00;99.90
19941;DHT22;10132;50.864;5.176;2023-09-18T01:59:43;21.00;99.90
19941;DHT22;10132;50.864;5.176;2023-09-18T02:01:46;21.10;99.90
19941;DHT22;10132;50.864;5.176;2023-09-18T02:03:49;21.00;99.90
19941;DHT22;10132;50.864;5.176;2023-09-18T02:05:50;20.90;99.90
19941;DHT22;10132;50.864;5.176;2023-09-18T02:07:52;20.80;99.90
19941;DHT22;10132;50.864;5.176;2023-09-18T02:09:57;20.70;99.90
19941;DHT22;10132;50.864;5.176;2023-09-18T02:12:05;20.60;99.90
19941;DHT22;10132;50.864;5.176;2023-09-18T02:14:09;20.50;99.90
19941;DHT22;10132;50.864;5.176;2023-09-18T02:16:11;20.50;99.90
19941;DHT22;10132;50.864;5.176;2023-09-18T02:18:12;20.50;99.90
19941;DHT22;10132;50.864;5.176;2023-09-18T02:20:16;20.60;99.90
19941;DHT22;10132;50.864;5.176;2023-09-18T02:22:18;20.60;99.90
19941;DHT22;10132;50.864;5.176;2023-09-18T02:24:21;20.50;99.90
19941;DHT22;10132;50.864;5.176;2023-09-18T02:26:24;20.30;99.90
19941;DHT22;10132;50.864;5.176;2023-09-18T02:28:27;20.10;99.90
19941;DHT22;10132;50.864;5.176;2023-09-18T02:30:30;20.00;99.90
19941;DHT22;10132;50.864;5.176;2023-09-18T02:32:33;19.90;99.90
19941;DHT22;10132;50.864;5.176;2023-09-18T02:34:37;19.80;99.90
19941;DHT22;10132;50.864;5.176;2023-09-18T02:36:39;19.70;99.90
19941;DHT22;10132;50.864;5.176;2023-09-18T02:38:41;19.70;99.90
19941;DHT22;10132;50.864;5.176;2023-09-18T02:40:44;19.80;99.90
19941;DHT22;10132;50.864;5.176;2023-09-18T02:42:46;19.80;99.90
19941;DHT22;10132;50.864;5.176;2023-09-18T02:44:48;19.80;99.90
19941;DHT22;10132;50.864;5.176;2023-09-18T02:46:52;19.70;99.90
19941;DHT22;10132;50.864;5.176;2023-09-18T02:48:55;19.70;99.90
19941;DHT22;10132;50.864;5.176;2023-09-18T02:50:58;19.60;99.90
19941;DHT22;10132;50.864;5.176;2023-09-18T02:53:01;19.60;99.90
19941;DHT22;10132;50.864;5.176;2023-09-18T02:55:04;19.60;99.90
19941;DHT22;10132;50.864;5.176;2023-09-18T02:57:08;19.60;99.90
19941;DHT22;10132;50.864;5.176;2023-09-18T02:59:10;19.60;99.90
19941;DHT22;10132;50.864;5.176;2023-09-18T03:01:12;19.50;99.90
19941;DHT22;10132;50.864;5.176;2023-09-18T03:03:16;19.50;99.90
19941;DHT22;10132;50.864;5.176;2023-09-18T03:05:18;19.50;99.90
19941;DHT22;10132;50.864;5.176;2023-09-18T03:07:21;19.40;99.90
19941;DHT22;10132;50.864;5.176;2023-09-18T03:09:24;19.40;99.90
19941;DHT22;10132;50.864;5.176;2023-09-18T03:11:26;19.50;99.90
19941;DHT22;10132;50.864;5.176;2023-09-18T03:13:31;19.50;99.90
19941;DHT22;10132;50.864;5.176;2023-09-18T03:15:32;19.60;99.90
19941;DHT22;10132;50.864;5.176;2023-09-18T03:17:35;19.60;99.90
19941;DHT22;10132;50.864;5.176;2023-09-18T03:19:39;19.50;99.90
19941;DHT22;10132;50.864;5.176;2023-09-18T03:21:41;19.50;99.90
19941;DHT22;10132;50.864;5.176;2023-09-18T03:23:43;19.40;99.90
19941;DHT22;10132;50.864;5.176;2023-09-18T03:25:45;19.40;99.90
19941;DHT22;10132;50.864;5.176;2023-09-18T03:27:51;19.50;99.90
19941;DHT22;10132;50.864;5.176;2023-09-18T03:29:54;19.50;99.90
19941;DHT22;10132;50.864;5.176;2023-09-18T03:31:56;19.60;99.90
19941;DHT22;10132;50.864;5.176;2023-09-18T03:34:00;19.60;99.90
19941;DHT22;10132;50.864;5.176;2023-09-18T03:36:03;19.50;99.90
19941;DHT22;10132;50.864;5.176;2023-09-18T03:38:06;19.50;99.90
19941;DHT22;10132;50.864;5.176;2023-09-18T03:40:09;19.50;99.90
19941;DHT22;10132;50.864;5.176;2023-09-18T03:42:11;19.60;99.90
19941;DHT22;10132;50.864;5.176;2023-09-18T03:44:14;19.60;99.90
19941;DHT22;10132;50.864;5.176;2023-09-18T03:46:17;19.60;99.90
19941;DHT22;10132;50.864;5.176;2023-09-18T03:48:21;19.50;99.90
19941;DHT22;10132;50.864;5.176;2023-09-18T03:50:23;19.50;99.90
19941;DHT22;10132;50.864;5.176;2023-09-18T03:52:29;19.50;99.90
19941;DHT22;10132;50.864;5.176;2023-09-18T03:54:31;19.60;99.90
19941;DHT22;10132;50.864;5.176;2023-09-18T03:56:33;19.60;99.90
19941;DHT22;10132;50.864;5.176;2023-09-18T03:58:35;19.60;99.90
19941;DHT22;10132;50.864;5.176;2023-09-18T04:00:39;19.70;99.90
19941;DHT22;10132;50.864;5.176;2023-09-18T04:02:41;19.70;99.90
19941;DHT22;10132;50.864;5.176;2023-09-18T04:04:43;19.70;99.90
19941;DHT22;10132;50.864;5.176;2023-09-18T04:06:46;19.70;99.90
19941;DHT22;10132;50.864;5.176;2023-09-18T04:08:49;19.80;99.90
19941;DHT22;10132;50.864;5.176;2023-09-18T04:10:51;19.70;99.90
19941;DHT22;10132;50.864;5.176;2023-09-18T04:12:56;19.70;99.90
19941;DHT22;10132;50.864;5.176;2023-09-18T04:14:58;19.70;99.90
19941;DHT22;10132;50.864;5.176;2023-09-18T04:17:01;19.70;99.90
19941;DHT22;10132;50.864;5.176;2023-09-18T04:19:03;19.60;99.90
19941;DHT22;10132;50.864;5.176;2023-09-18T04:21:05;19.60;99.90
19941;DHT22;10132;50.864;5.176;2023-09-18T04:23:21;19.60;99.90
19941;DHT22;10132;50.864;5.176;2023-09-18T04:25:26;19.60;99.90
19941;DHT22;10132;50.864;5.176;2023-09-18T04:27:28;19.60;99.90
19941;DHT22;10132;50.864;5.176;2023-09-18T04:29:29;19.60;99.90
19941;DHT22;10132;50.864;5.176;2023-09-18T04:31:31;19.60;99.90
19941;DHT22;10132;50.864;5.176;2023-09-18T04:33:34;19.60;99.90
19941;DHT22;10132;50.864;5.176;2023-09-18T04:35:36;19.60;99.90
19941;DHT22;10132;50.864;5.176;2023-09-18T04:37:40;19.60;99.90
19941;DHT22;10132;50.864;5.176;2023-09-18T04:39:42;19.50;99.90
19941;DHT22;10132;50.864;5.176;2023-09-18T04:41:45;19.50;99.90
19941;DHT22;10132;50.864;5.176;2023-09-18T04:43:47;19.50;99.90
19941;DHT22;10132;50.864;5.176;2023-09-18T04:45:49;19.50;99.90
19941;DHT22;10132;50.864;5.176;2023-09-18T04:47:52;19.50;99.90
19941;DHT22;10132;50.864;5.176;2023-09-18T04:49:54;19.50;99.90
19941;DHT22;10132;50.864;5.176;2023-09-18T04:51:56;19.50;99.90
19941;DHT22;10132;50.864;5.176;2023-09-18T04:53:58;19.50;99.90
19941;DHT22;10132;50.864;5.176;2023-09-18T04:56:01;19.40;99.90
19941;DHT22;10132;50.864;5.176;2023-09-18T04:58:07;19.40;99.90
19941;DHT22;10132;50.864;5.176;2023-09-18T05:00:10;19.40;99.90
19941;DHT22;10132;50.864;5.176;2023-09-18T05:02:15;19.30;99.90
19941;DHT22;10132;50.864;5.176;2023-09-18T05:04:18;19.30;99.90
19941;DHT22;10132;50.864;5.176;2023-09-18T05:06:22;19.30;99.90
19941;DHT22;10132;50.864;5.176;2023-09-18T05:08:24;19.30;99.90
19941;DHT22;10132;50.864;5.176;2023-09-18T05:10:26;19.20;99.90
19941;DHT22;10132;50.864;5.176;2023-09-18T05:12:28;19.20;99.90
19941;DHT22;10132;50.864;5.176;2023-09-18T05:14:32;19.20;99.90
19941;DHT22;10132;50.864;5.176;2023-09-18T05:16:35;19.20;99.90
19941;DHT22;10132;50.864;5.176;2023-09-18T05:18:38;19.20;99.90
19941;DHT22;10132;50.864;5.176;2023-09-18T05:20:41;19.20;99.90
19941;DHT22;10132;50.864;5.176;2023-09-18T05:22:44;19.10;99.90
19941;DHT22;10132;50.864;5.176;2023-09-18T05:24:45;19.10;99.90
19941;DHT22;10132;50.864;5.176;2023-09-18T05:26:49;19.10;99.90
19941;DHT22;10132;50.864;5.176;2023-09-18T05:28:53;19.10;99.90
19941;DHT22;10132;50.864;5.176;2023-09-18T05:30:57;19.10;99.90
19941;DHT22;10132;50.864;5.176;2023-09-18T05:32:59;19.10;99.90
19941;DHT22;10132;50.864;5.176;2023-09-18T05:35:06;19.10;99.90
19941;DHT22;10132;50.864;5.176;2023-09-18T05:37:13;19.10;99.90
19941;DHT22;10132;50.864;5.176;2023-09-18T05:39:16;19.10;99.90
19941;DHT22;10132;50.864;5.176;2023-09-18T05:41:19;19.10;99.90
19941;DHT22;10132;50.864;5.176;2023-09-18T05:43:21;19.10;99.90
19941;DHT22;10132;50.864;5.176;2023-09-18T05:45:24;19.10;99.90
19941;DHT22;10132;50.864;5.176;2023-09-18T05:47:30;19.10;99.90
19941;DHT22;10132;50.864;5.176;2023-09-18T05:49:33;19.10;99.90
19941;DHT22;10132;50.864;5.176;2023-09-18T05:51:35;19.00;99.90
19941;DHT22;10132;50.864;5.176;2023-09-18T05:53:37;19.00;99.90
19941;DHT22;10132;50.864;5.176;2023-09-18T05:55:39;19.00;99.90
19941;DHT22;10132;50.864;5.176;2023-09-18T05:57:42;19.00;99.90
19941;DHT22;10132;50.864;5.176;2023-09-18T05:59:43;19.00;99.90
19941;DHT22;10132;50.864;5.176;2023-09-18T06:01:45;19.10;99.90
19941;DHT22;10132;50.864;5.176;2023-09-18T06:03:51;19.10;99.90
19941;DHT22;10132;50.864;5.176;2023-09-18T06:05:53;19.10;99.90
19941;DHT22;10132;50.864;5.176;2023-09-18T06:07:55;19.10;99.90
19941;DHT22;10132;50.864;5.176;2023-09-18T06:09:58;19.10;99.90
19941;DHT22;10132;50.864;5.176;2023-09-18T06:12:00;19.10;99.90
19941;DHT22;10132;50.864;5.176;2023-09-18T06:14:01;19.20;99.90
19941;DHT22;10132;50.864;5.176;2023-09-18T06:16:05;19.20;99.90
19941;DHT22;10132;50.864;5.176;2023-09-18T06:18:09;19.20;99.90
19941;DHT22;10132;50.864;5.176;2023-09-18T06:20:12;19.20;99.90
19941;DHT22;10132;50.864;5.176;2023-09-18T06:22:16;19.10;99.90
19941;DHT22;10132;50.864;5.176;2023-09-18T06:24:19;19.10;99.90
19941;DHT22;10132;50.864;5.176;2023-09-18T06:26:22;19.10;99.90
19941;DHT22;10132;50.864;5.176;2023-09-18T06:28:23;19.10;99.90
19941;DHT22;10132;50.864;5.176;2023-09-18T06:30:25;19.10;99.90
19941;DHT22;10132;50.864;5.176;2023-09-18T06:32:28;19.10;99.90
19941;DHT22;10132;50.864;5.176;2023-09-18T06:34:30;19.20;99.90
19941;DHT22;10132;50.864;5.176;2023-09-18T06:36:33;19.20;99.90
19941;DHT22;10132;50.864;5.176;2023-09-18T06:38:36;19.20;99.90
19941;DHT22;10132;50.864;5.176;2023-09-18T06:40:38;19.10;99.90
19941;DHT22;10132;50.864;5.176;2023-09-18T06:42:41;19.20;99.90
19941;DHT22;10132;50.864;5.176;2023-09-18T06:44:43;19.20;99.90
19941;DHT22;10132;50.864;5.176;2023-09-18T06:46:46;19.30;99.90
19941;DHT22;10132;50.864;5.176;2023-09-18T06:48:48;19.20;99.90
19941;DHT22;10132;50.864;5.176;2023-09-18T06:50:51;19.20;99.90
19941;DHT22;10132;50.864;5.176;2023-09-18T06:52:55;19.20;99.90
19941;DHT22;10132;50.864;5.176;2023-09-18T06:54:57;19.30;99.90
19941;DHT22;10132;50.864;5.176;2023-09-18T06:57:00;19.30;99.90
19941;DHT22;10132;50.864;5.176;2023-09-18T06:59:04;19.30;99.90
19941;DHT22;10132;50.864;5.176;2023-09-18T07:01:06;19.40;99.90
19941;DHT22;10132;50.864;5.176;2023-09-18T07:03:10;19.40;99.90
19941;DHT22;10132;50.864;5.176;2023-09-18T07:05:12;19.40;99.90
19941;DHT22;10132;50.864;5.176;2023-09-18T07:07:15;19.40;99.90
19941;DHT22;10132;50.864;5.176;2023-09-18T07:09:19;19.40;99.90
19941;DHT22;10132;50.864;5.176;2023-09-18T07:11:24;19.30;99.90
19941;DHT22;10132;50.864;5.176;2023-09-18T07:13:26;19.30;99.90
19941;DHT22;10132;50.864;5.176;2023-09-18T07:15:29;19.30;99.90
19941;DHT22;10132;50.864;5.176;2023-09-18T07:17:31;19.20;99.90
19941;DHT22;10132;50.864;5.176;2023-09-18T07:19:33;19.20;99.90
19941;DHT22;10132;50.864;5.176;2023-09-18T07:21:35;19.30;99.90
19941;DHT22;10132;50.864;5.176;2023-09-18T07:23:39;19.40;99.90
19941;DHT22;10132;50.864;5.176;2023-09-18T07:25:43;19.40;99.90
19941;DHT22;10132;50.864;5.176;2023-09-18T07:27:45;19.50;99.90
19941;DHT22;10132;50.864;5.176;2023-09-18T07:29:47;19.50;99.90
19941;DHT22;10132;50.864;5.176;2023-09-18T07:31:49;19.50;99.90
19941;DHT22;10132;50.864;5.176;2023-09-18T07:33:52;19.40;99.90
19941;DHT22;10132;50.864;5.176;2023-09-18T07:35:54;19.40;99.90
19941;DHT22;10132;50.864;5.176;2023-09-18T07:37:56;19.40;99.90
19941;DHT22;10132;50.864;5.176;2023-09-18T07:39:58;19.40;99.90
19941;DHT22;10132;50.864;5.176;2023-09-18T07:42:01;19.50;99.90
19941;DHT22;10132;50.864;5.176;2023-09-18T07:44:06;19.40;99.90
19941;DHT22;10132;50.864;5.176;2023-09-18T07:46:08;19.30;99.90
19941;DHT22;10132;50.864;5.176;2023-09-18T07:48:09;19.30;99.90
19941;DHT22;10132;50.864;5.176;2023-09-18T07:50:12;19.30;99.90
19941;DHT22;10132;50.864;5.176;2023-09-18T07:52:14;19.30;99.90
19941;DHT22;10132;50.864;5.176;2023-09-18T07:54:17;19.20;99.90
19941;DHT22;10132;50.864;5.176;2023-09-18T07:56:20;19.30;99.90
19941;DHT22;10132;50.864;5.176;2023-09-18T07:58:23;19.20;99.90
19941;DHT22;10132;50.864;5.176;2023-09-18T08:00:29;19.30;99.90
19941;DHT22;10132;50.864;5.176;2023-09-18T08:02:31;19.40;99.90
19941;DHT22;10132;50.864;5.176;2023-09-18T08:04:33;19.40;99.90
19941;DHT22;10132;50.864;5.176;2023-09-18T08:06:36;19.40;99.90
19941;DHT22;10132;50.864;5.176;2023-09-18T08:08:38;19.50;99.90
19941;DHT22;10132;50.864;5.176;2023-09-18T08:10:41;19.50;99.90
19941;DHT22;10132;50.864;5.176;2023-09-18T08:12:46;19.60;99.90
19941;DHT22;10132;50.864;5.176;2023-09-18T08:14:50;19.60;99.90
19941;DHT22;10132;50.864;5.176;2023-09-18T08:16:56;19.60;99.90
19941;DHT22;10132;50.864;5.176;2023-09-18T08:19:01;19.60;99.90
19941;DHT22;10132;50.864;5.176;2023-09-18T08:21:03;19.70;99.90
19941;DHT22;10132;50.864;5.176;2023-09-18T08:23:05;19.70;99.90
19941;DHT22;10132;50.864;5.176;2023-09-18T08:25:07;19.80;99.90
19941;DHT22;10132;50.864;5.176;2023-09-18T08:27:13;19.70;99.90
19941;DHT22;10132;50.864;5.176;2023-09-18T08:29:17;19.70;99.90
19941;DHT22;10132;50.864;5.176;2023-09-18T08:31:21;19.70;99.90
19941;DHT22;10132;50.864;5.176;2023-09-18T08:33:25;19.80;99.90
19941;DHT22;10132;50.864;5.176;2023-09-18T08:35:27;19.90;99.90
19941;DHT22;10132;50.864;5.176;2023-09-18T08:37:30;20.10;99.90
19941;DHT22;10132;50.864;5.176;2023-09-18T08:39:33;20.20;99.90
19941;DHT22;10132;50.864;5.176;2023-09-18T08:41:42;20.60;99.90
19941;DHT22;10132;50.864;5.176;2023-09-18T08:43:45;20.80;99.90
19941;DHT22;10132;50.864;5.176;2023-09-18T08:45:52;20.90;99.90
19941;DHT22;10132;50.864;5.176;2023-09-18T08:47:57;20.90;99.90
19941;DHT22;10132;50.864;5.176;2023-09-18T08:50:00;20.80;99.90
19941;DHT22;10132;50.864;5.176;2023-09-18T08:52:06;20.80;99.90
19941;DHT22;10132;50.864;5.176;2023-09-18T08:54:09;20.90;99.90
19941;DHT22;10132;50.864;5.176;2023-09-18T08:56:12;21.00;99.90
19941;DHT22;10132;50.864;5.176;2023-09-18T08:58:14;21.10;99.90
19941;DHT22;10132;50.864;5.176;2023-09-18T09:00:20;21.30;99.90
19941;DHT22;10132;50.864;5.176;2023-09-18T09:02:23;21.20;99.90
19941;DHT22;10132;50.864;5.176;2023-09-18T09:04:27;21.40;99.90
19941;DHT22;10132;50.864;5.176;2023-09-18T09:06:30;21.50;99.90
19941;DHT22;10132;50.864;5.176;2023-09-18T09:08:33;21.40;99.90
19941;DHT22;10132;50.864;5.176;2023-09-18T09:10:35;21.40;99.90
19941;DHT22;10132;50.864;5.176;2023-09-18T09:12:52;21.40;99.90
19941;DHT22;10132;50.864;5.176;2023-09-18T09:15:02;21.40;99.90
19941;DHT22;10132;50.864;5.176;2023-09-18T09:17:05;21.60;99.90
19941;DHT22;10132;50.864;5.176;2023-09-18T09:19:07;21.80;99.90
19941;DHT22;10132;50.864;5.176;2023-09-18T09:21:11;21.80;99.90
19941;DHT22;10132;50.864;5.176;2023-09-18T09:23:13;21.60;99.90
19941;DHT22;10132;50.864;5.176;2023-09-18T09:25:25;21.80;99.90
19941;DHT22;10132;50.864;5.176;2023-09-18T09:27:28;21.70;99.90
19941;DHT22;10132;50.864;5.176;2023-09-18T09:29:30;21.60;99.90
19941;DHT22;10132;50.864;5.176;2023-09-18T09:31:32;21.50;99.90
19941;DHT22;10132;50.864;5.176;2023-09-18T09:33:34;21.60;99.90
19941;DHT22;10132;50.864;5.176;2023-09-18T09:35:37;21.90;99.90
19941;DHT22;10132;50.864;5.176;2023-09-18T09:37:41;22.00;99.90
19941;DHT22;10132;50.864;5.176;2023-09-18T09:39:47;22.20;99.90
19941;DHT22;10132;50.864;5.176;2023-09-18T09:41:51;22.10;99.90
19941;DHT22;10132;50.864;5.176;2023-09-18T09:43:53;22.40;99.90
19941;DHT22;10132;50.864;5.176;2023-09-18T09:45:57;22.20;99.90
19941;DHT22;10132;50.864;5.176;2023-09-18T09:48:01;22.40;99.90
19941;DHT22;10132;50.864;5.176;2023-09-18T09:50:09;22.60;99.90
19941;DHT22;10132;50.864;5.176;2023-09-18T09:52:17;22.40;99.90
19941;DHT22;10132;50.864;5.176;2023-09-18T09:54:33;22.50;99.90
19941;DHT22;10132;50.864;5.176;2023-09-18T09:56:42;22.40;99.90
19941;DHT22;10132;50.864;5.176;2023-09-18T09:59:00;22.50;99.90
19941;DHT22;10132;50.864;5.176;2023-09-18T10:01:06;22.50;99.90
19941;DHT22;10132;50.864;5.176;2023-09-18T10:03:12;22.50;99.90
19941;DHT22;10132;50.864;5.176;2023-09-18T10:05:15;22.40;99.90
19941;DHT22;10132;50.864;5.176;2023-09-18T10:07:18;22.30;99.90
19941;DHT22;10132;50.864;5.176;2023-09-18T10:09:21;22.30;99.90
19941;DHT22;10132;50.864;5.176;2023-09-18T10:11:26;22.20;99.90
19941;DHT22;10132;50.864;5.176;2023-09-18T10:13:33;22.10;99.90
19941;DHT22;10132;50.864;5.176;2023-09-18T10:15:39;22.30;99.90
19941;DHT22;10132;50.864;5.176;2023-09-18T10:17:44;22.10;99.90
19941;DHT22;10132;50.864;5.176;2023-09-18T10:20:05;22.10;99.90
19941;DHT22;10132;50.864;5.176;2023-09-18T10:22:17;22.40;99.90
19941;DHT22;10132;50.864;5.176;2023-09-18T10:24:24;22.80;99.90
19941;DHT22;10132;50.864;5.176;2023-09-18T10:26:30;23.10;99.90
19941;DHT22;10132;50.864;5.176;2023-09-18T10:28:34;23.10;99.90
19941;DHT22;10132;50.864;5.176;2023-09-18T10:30:37;22.70;99.90
19941;DHT22;10132;50.864;5.176;2023-09-18T10:32:40;22.80;99.90
19941;DHT22;10132;50.864;5.176;2023-09-18T10:34:43;22.50;99.90
19941;DHT22;10132;50.864;5.176;2023-09-18T10:36:49;22.50;99.90
19941;DHT22;10132;50.864;5.176;2023-09-18T10:38:51;22.30;99.90
19941;DHT22;10132;50.864;5.176;2023-09-18T10:40:56;22.40;99.90
19941;DHT22;10132;50.864;5.176;2023-09-18T10:43:02;22.60;99.90
19941;DHT22;10132;50.864;5.176;2023-09-18T10:45:11;22.30;99.90
19941;DHT22;10132;50.864;5.176;2023-09-18T10:47:16;22.60;99.90
19941;DHT22;10132;50.864;5.176;2023-09-18T10:49:19;22.70;99.90
19941;DHT22;10132;50.864;5.176;2023-09-18T10:51:22;22.60;99.90
19941;DHT22;10132;50.864;5.176;2023-09-18T10:53:26;22.60;99.90
19941;DHT22;10132;50.864;5.176;2023-09-18T10:55:28;22.30;99.90
19941;DHT22;10132;50.864;5.176;2023-09-18T10:57:33;22.30;99.90
19941;DHT22;10132;50.864;5.176;2023-09-18T10:59:45;22.30;99.90
19941;DHT22;10132;50.864;5.176;2023-09-18T11:01:47;22.30;99.90
19941;DHT22;10132;50.864;5.176;2023-09-18T11:03:50;22.20;99.90
19941;DHT22;10132;50.864;5.176;2023-09-18T11:06:07;22.20;99.90
19941;DHT22;10132;50.864;5.176;2023-09-18T11:08:32;22.50;99.90
19941;DHT22;10132;50.864;5.176;2023-09-18T11:10:36;23.10;99.90
19941;DHT22;10132;50.864;5.176;2023-09-18T11:12:45;23.20;99.90
19941;DHT22;10132;50.864;5.176;2023-09-18T11:14:56;23.10;99.90
19941;DHT22;10132;50.864;5.176;2023-09-18T11:16:59;22.80;99.90
19941;DHT22;10132;50.864;5.176;2023-09-18T11:19:08;22.70;99.90
19941;DHT22;10132;50.864;5.176;2023-09-18T11:21:15;22.50;99.90
19941;DHT22;10132;50.864;5.176;2023-09-18T11:23:19;22.40;99.90
19941;DHT22;10132;50.864;5.176;2023-09-18T11:25:35;22.30;99.90
19941;DHT22;10132;50.864;5.176;2023-09-18T11:27:53;22.00;99.90
19941;DHT22;10132;50.864;5.176;2023-09-18T11:30:00;22.20;99.90
19941;DHT22;10132;50.864;5.176;2023-09-18T11:32:04;22.20;99.90
19941;DHT22;10132;50.864;5.176;2023-09-18T11:34:12;22.30;99.90
19941;DHT22;10132;50.864;5.176;2023-09-18T11:36:28;22.60;99.90
19941;DHT22;10132;50.864;5.176;2023-09-18T11:38:34;22.40;99.90
19941;DHT22;10132;50.864;5.176;2023-09-18T11:40:37;22.50;99.90
19941;DHT22;10132;50.864;5.176;2023-09-18T11:43:23;22.70;99.90
19941;DHT22;10132;50.864;5.176;2023-09-18T11:45:33;22.70;99.90
19941;DHT22;10132;50.864;5.176;2023-09-18T11:47:34;22.70;99.90
19941;DHT22;10132;50.864;5.176;2023-09-18T11:49:46;22.80;99.90
19941;DHT22;10132;50.864;5.176;2023-09-18T11:51:51;23.10;99.90
19941;DHT22;10132;50.864;5.176;2023-09-18T11:53:55;23.50;99.90
19941;DHT22;10132;50.864;5.176;2023-09-18T11:55:59;23.70;99.90
19941;DHT22;10132;50.864;5.176;2023-09-18T11:58:03;23.80;99.90
19941;DHT22;10132;50.864;5.176;2023-09-18T12:00:18;23.90;99.90
19941;DHT22;10132;50.864;5.176;2023-09-18T12:02:29;24.00;99.90
19941;DHT22;10132;50.864;5.176;2023-09-18T12:04:36;24.20;99.90
19941;DHT22;10132;50.864;5.176;2023-09-18T12:06:41;24.10;99.90
19941;DHT22;10132;50.864;5.176;2023-09-18T12:08:43;24.20;99.90
19941;DHT22;10132;50.864;5.176;2023-09-18T12:10:50;23.80;99.90
19941;DHT22;10132;50.864;5.176;2023-09-18T12:12:52;23.30;99.90
19941;DHT22;10132;50.864;5.176;2023-09-18T12:14:56;22.90;99.90
19941;DHT22;10132;50.864;5.176;2023-09-18T12:17:00;23.00;99.90
19941;DHT22;10132;50.864;5.176;2023-09-18T12:19:05;23.30;99.90
19941;DHT22;10132;50.864;5.176;2023-09-18T12:21:08;23.50;99.90
19941;DHT22;10132;50.864;5.176;2023-09-18T12:23:10;24.00;99.90
19941;DHT22;10132;50.864;5.176;2023-09-18T12:25:13;24.20;99.90
19941;DHT22;10132;50.864;5.176;2023-09-18T12:27:15;24.20;99.90
19941;DHT22;10132;50.864;5.176;2023-09-18T12:29:18;24.00;99.90
19941;DHT22;10132;50.864;5.176;2023-09-18T12:31:20;24.10;99.90
19941;DHT22;10132;50.864;5.176;2023-09-18T12:33:23;23.80;99.90
19941;DHT22;10132;50.864;5.176;2023-09-18T12:35:27;24.20;99.90
19941;DHT22;10132;50.864;5.176;2023-09-18T12:37:30;24.20;99.90
19941;DHT22;10132;50.864;5.176;2023-09-18T12:39:32;24.10;99.90
19941;DHT22;10132;50.864;5.176;2023-09-18T12:41:36;24.20;99.90
19941;DHT22;10132;50.864;5.176;2023-09-18T12:43:38;24.40;99.90
19941;DHT22;10132;50.864;5.176;2023-09-18T12:45:42;24.50;99.90
19941;DHT22;10132;50.864;5.176;2023-09-18T12:47:44;24.70;99.90
19941;DHT22;10132;50.864;5.176;2023-09-18T12:49:47;24.70;99.90
19941;DHT22;10132;50.864;5.176;2023-09-18T12:51:58;24.90;99.90
19941;DHT22;10132;50.864;5.176;2023-09-18T12:54:00;24.60;99.90
19941;DHT22;10132;50.864;5.176;2023-09-18T12:56:09;24.70;99.90
19941;DHT22;10132;50.864;5.176;2023-09-18T12:58:11;24.10;99.90
19941;DHT22;10132;50.864;5.176;2023-09-18T13:00:15;23.70;99.90
19941;DHT22;10132;50.864;5.176;2023-09-18T13:02:20;24.00;99.90